sensor_id;sensor_type;location;lat;lon;timestamp;temperature;humidity
11511;DHT22;5812;48.864;9.190;2022-09-13T00:01:13;15.40;1.00
11511;DHT22;5812;48.864;9.190;2022-09-13T00:03:38;15.30;1.00
11511;DHT22;5812;48.864;9.190;2022-09-13T00:06:13;15.30;1.00
11511;DHT22;5812;48.864;9.190;2022-09-13T00:08:39;15.20;1.00
11511;DHT22;5812;48.864;9.190;2022-09-13T00:11:05;15.40;1.00
11511;DHT22;5812;48.864;9.190;2022-09-13T00:13:31;15.30;1.00
11511;DHT22;5812;48.864;9.190;2022-09-13T00:15:57;15.10;1.00
11511;DHT22;5812;48.864;9.190;2022-09-13T00:18:23;15.10;1.00
11511;DHT22;5812;48.864;9.190;2022-09-13T00:20:49;15.00;1.00
11511;DHT22;5812;48.864;9.190;2022-09-13T00:23:15;15.20;1.00
11511;DHT22;5812;48.864;9.190;2022-09-13T00:25:40;15.20;1.00
11511;DHT22;5812;48.864;9.190;2022-09-13T00:28:06;15.30;1.00
11511;DHT22;5812;48.864;9.190;2022-09-13T00:30:32;15.30;1.00
11511;DHT22;5812;48.864;9.190;2022-09-13T00:32:57;15.40;1.00
11511;DHT22;5812;48.864;9.190;2022-09-13T00:35:23;15.50;99.90
11511;DHT22;5812;48.864;9.190;2022-09-13T00:37:49;15.50;99.90
11511;DHT22;5812;48.864;9.190;2022-09-13T00:40:15;15.40;99.90
11511;DHT22;5812;48.864;9.190;2022-09-13T00:42:40;15.40;1.00
11511;DHT22;5812;48.864;9.190;2022-09-13T00:47:57;15.40;1.00
11511;DHT22;5812;48.864;9.190;2022-09-13T00:50:34;15.20;1.00
11511;DHT22;5812;48.864;9.190;2022-09-13T00:53:32;14.90;1.00
11511;DHT22;5812;48.864;9.190;2022-09-13T00:56:23;14.90;1.00
11511;DHT22;5812;48.864;9.190;2022-09-13T00:58:53;15.00;1.00
11511;DHT22;5812;48.864;9.190;2022-09-13T01:01:22;14.90;1.00
11511;DHT22;5812;48.864;9.190;2022-09-13T01:03:50;14.90;1.00
11511;DHT22;5812;48.864;9.190;2022-09-13T01:06:22;14.90;1.00
11511;DHT22;5812;48.864;9.190;2022-09-13T01:08:51;14.90;1.00
11511;DHT22;5812;48.864;9.190;2022-09-13T01:14:21;15.10;1.00
11511;DHT22;5812;48.864;9.190;2022-09-13T01:16:48;15.10;1.00
11511;DHT22;5812;48.864;9.190;2022-09-13T01:19:14;15.10;1.00
11511;DHT22;5812;48.864;9.190;2022-09-13T01:22:05;14.90;1.00
11511;DHT22;5812;48.864;9.190;2022-09-13T01:44:32;14.30;1.00
11511;DHT22;5812;48.864;9.190;2022-09-13T01:50:11;14.10;43.90
11511;DHT22;5812;48.864;9.190;2022-09-13T01:52:55;14.10;48.80
11511;DHT22;5812;48.864;9.190;2022-09-13T01:55:29;14.00;54.80
11511;DHT22;5812;48.864;9.190;2022-09-13T02:00:44;13.90;68.40
11511;DHT22;5812;48.864;9.190;2022-09-13T02:03:17;13.90;73.50
11511;DHT22;5812;48.864;9.190;2022-09-13T02:05:54;13.90;61.30
11511;DHT22;5812;48.864;9.190;2022-09-13T02:08:28;13.90;63.60
11511;DHT22;5812;48.864;9.190;2022-09-13T02:13:35;13.90;81.80
11511;DHT22;5812;48.864;9.190;2022-09-13T02:16:09;13.80;86.20
11511;DHT22;5812;48.864;9.190;2022-09-13T02:18:40;13.70;90.00
11511;DHT22;5812;48.864;9.190;2022-09-13T02:21:16;13.70;94.20
11511;DHT22;5812;48.864;9.190;2022-09-13T02:24:10;13.70;98.70
11511;DHT22;5812;48.864;9.190;2022-09-13T02:26:39;13.70;99.90
11511;DHT22;5812;48.864;9.190;2022-09-13T02:29:11;13.60;99.90
11511;DHT22;5812;48.864;9.190;2022-09-13T02:31:54;13.60;99.90
11511;DHT22;5812;48.864;9.190;2022-09-13T02:34:29;13.60;99.90
11511;DHT22;5812;48.864;9.190;2022-09-13T02:36:57;13.50;99.90
11511;DHT22;5812;48.864;9.190;2022-09-13T02:39:26;13.50;99.90
11511;DHT22;5812;48.864;9.190;2022-09-13T02:42:25;13.40;99.90
11511;DHT22;5812;48.864;9.190;2022-09-13T02:44:53;13.40;99.90
11511;DHT22;5812;48.864;9.190;2022-09-13T02:59:04;13.20;99.90
11511;DHT22;5812;48.864;9.190;2022-09-13T03:01:36;13.10;99.90
11511;DHT22;5812;48.864;9.190;2022-09-13T03:04:03;13.10;99.90
11511;DHT22;5812;48.864;9.190;2022-09-13T03:06:29;13.10;99.90
11511;DHT22;5812;48.864;9.190;2022-09-13T03:08:57;13.10;99.90
11511;DHT22;5812;48.864;9.190;2022-09-13T03:17:13;12.90;99.90
11511;DHT22;5812;48.864;9.190;2022-09-13T03:22:40;12.90;99.90
11511;DHT22;5812;48.864;9.190;2022-09-13T03:25:18;12.80;99.90
11511;DHT22;5812;48.864;9.190;2022-09-13T03:28:12;12.80;99.90
11511;DHT22;5812;48.864;9.190;2022-09-13T03:30:47;12.80;99.90
11511;DHT22;5812;48.864;9.190;2022-09-13T03:33:46;12.70;99.90
11511;DHT22;5812;48.864;9.190;2022-09-13T03:39:51;12.70;99.90
11511;DHT22;5812;48.864;9.190;2022-09-13T03:42:23;12.70;99.90
11511;DHT22;5812;48.864;9.190;2022-09-13T03:44:50;12.70;99.90
11511;DHT22;5812;48.864;9.190;2022-09-13T03:47:18;12.80;99.90
11511;DHT22;5812;48.864;9.190;2022-09-13T03:49:46;12.70;99.90
11511;DHT22;5812;48.864;9.190;2022-09-13T03:52:12;12.80;99.90
11511;DHT22;5812;48.864;9.190;2022-09-13T03:54:37;12.90;99.90
11511;DHT22;5812;48.864;9.190;2022-09-13T03:57:10;12.80;99.90
11511;DHT22;5812;48.864;9.190;2022-09-13T03:59:39;12.70;99.90
11511;DHT22;5812;48.864;9.190;2022-09-13T04:02:06;12.70;99.90
11511;DHT22;5812;48.864;9.190;2022-09-13T04:04:37;12.70;99.90
11511;DHT22;5812;48.864;9.190;2022-09-13T04:07:02;12.60;99.90
11511;DHT22;5812;48.864;9.190;2022-09-13T04:09:29;12.60;99.90
11511;DHT22;5812;48.864;9.190;2022-09-13T04:11:55;12.70;99.90
11511;DHT22;5812;48.864;9.190;2022-09-13T04:14:21;12.80;99.90
11511;DHT22;5812;48.864;9.190;2022-09-13T04:16:51;12.60;99.90
11511;DHT22;5812;48.864;9.190;2022-09-13T04:19:17;12.50;99.90
11511;DHT22;5812;48.864;9.190;2022-09-13T04:21:43;12.50;99.90
11511;DHT22;5812;48.864;9.190;2022-09-13T04:24:11;12.50;99.90
11511;DHT22;5812;48.864;9.190;2022-09-13T04:26:36;12.50;99.90
11511;DHT22;5812;48.864;9.190;2022-09-13T04:29:02;12.50;99.90
11511;DHT22;5812;48.864;9.190;2022-09-13T04:31:27;12.60;99.90
11511;DHT22;5812;48.864;9.190;2022-09-13T04:33:53;12.70;99.90
11511;DHT22;5812;48.864;9.190;2022-09-13T04:36:19;12.70;99.90
11511;DHT22;5812;48.864;9.190;2022-09-13T04:38:45;12.80;99.90
11511;DHT22;5812;48.864;9.190;2022-09-13T04:41:11;12.80;99.90
11511;DHT22;5812;48.864;9.190;2022-09-13T04:43:38;12.90;99.90
11511;DHT22;5812;48.864;9.190;2022-09-13T04:46:03;13.10;99.90
11511;DHT22;5812;48.864;9.190;2022-09-13T04:48:29;13.10;99.90
11511;DHT22;5812;48.864;9.190;2022-09-13T04:51:03;13.10;99.90
11511;DHT22;5812;48.864;9.190;2022-09-13T04:53:30;13.30;99.90
11511;DHT22;5812;48.864;9.190;2022-09-13T04:56:03;13.30;99.90
11511;DHT22;5812;48.864;9.190;2022-09-13T04:58:29;13.20;99.90
11511;DHT22;5812;48.864;9.190;2022-09-13T05:01:03;13.30;99.90
11511;DHT22;5812;48.864;9.190;2022-09-13T05:03:30;13.40;99.90
11511;DHT22;5812;48.864;9.190;2022-09-13T05:06:10;13.40;99.90
11511;DHT22;5812;48.864;9.190;2022-09-13T05:08:36;13.40;99.90
11511;DHT22;5812;48.864;9.190;2022-09-13T05:11:03;13.40;99.90
11511;DHT22;5812;48.864;9.190;2022-09-13T05:13:29;13.50;99.90
11511;DHT22;5812;48.864;9.190;2022-09-13T05:16:00;13.50;99.90
11511;DHT22;5812;48.864;9.190;2022-09-13T05:18:29;13.60;99.90
11511;DHT22;5812;48.864;9.190;2022-09-13T05:20:56;13.50;99.90
11511;DHT22;5812;48.864;9.190;2022-09-13T05:23:23;13.50;99.90
11511;DHT22;5812;48.864;9.190;2022-09-13T05:25:53;13.60;99.90
11511;DHT22;5812;48.864;9.190;2022-09-13T05:28:19;13.70;99.90
11511;DHT22;5812;48.864;9.190;2022-09-13T05:30:54;13.70;99.90
11511;DHT22;5812;48.864;9.190;2022-09-13T05:33:20;14.10;99.90
11511;DHT22;5812;48.864;9.190;2022-09-13T05:35:45;14.20;92.40
11511;DHT22;5812;48.864;9.190;2022-09-13T05:38:11;14.30;75.80
11511;DHT22;5812;48.864;9.190;2022-09-13T05:40:37;14.20;87.50
11511;DHT22;5812;48.864;9.190;2022-09-13T05:43:02;14.10;98.50
11511;DHT22;5812;48.864;9.190;2022-09-13T05:45:28;14.30;92.70
11511;DHT22;5812;48.864;9.190;2022-09-13T05:47:53;14.30;95.50
11511;DHT22;5812;48.864;9.190;2022-09-13T05:50:19;14.20;97.10
11511;DHT22;5812;48.864;9.190;2022-09-13T05:52:51;14.40;80.10
11511;DHT22;5812;48.864;9.190;2022-09-13T05:55:17;14.40;74.50
11511;DHT22;5812;48.864;9.190;2022-09-13T05:57:43;14.50;66.80
11511;DHT22;5812;48.864;9.190;2022-09-13T06:00:09;14.50;68.90
11511;DHT22;5812;48.864;9.190;2022-09-13T06:02:35;14.60;74.50
11511;DHT22;5812;48.864;9.190;2022-09-13T06:05:00;14.80;48.80
11511;DHT22;5812;48.864;9.190;2022-09-13T06:07:26;14.90;50.30
11511;DHT22;5812;48.864;9.190;2022-09-13T06:09:53;15.10;9.30
11511;DHT22;5812;48.864;9.190;2022-09-13T06:12:18;15.30;1.00
11511;DHT22;5812;48.864;9.190;2022-09-13T06:14:44;15.60;1.00
11511;DHT22;5812;48.864;9.190;2022-09-13T06:17:09;15.70;1.00
11511;DHT22;5812;48.864;9.190;2022-09-13T06:19:35;15.70;1.00
11511;DHT22;5812;48.864;9.190;2022-09-13T06:22:00;15.70;1.00
11511;DHT22;5812;48.864;9.190;2022-09-13T06:24:26;15.80;1.00
11511;DHT22;5812;48.864;9.190;2022-09-13T06:26:52;15.80;1.00
11511;DHT22;5812;48.864;9.190;2022-09-13T06:29:18;15.70;1.00
11511;DHT22;5812;48.864;9.190;2022-09-13T06:31:44;15.70;1.00
11511;DHT22;5812;48.864;9.190;2022-09-13T06:34:10;15.70;1.00
11511;DHT22;5812;48.864;9.190;2022-09-13T06:36:40;15.90;1.00
11511;DHT22;5812;48.864;9.190;2022-09-13T06:39:06;15.80;1.00
11511;DHT22;5812;48.864;9.190;2022-09-13T06:41:32;15.80;1.00
11511;DHT22;5812;48.864;9.190;2022-09-13T06:43:59;15.90;1.00
11511;DHT22;5812;48.864;9.190;2022-09-13T06:46:30;15.80;1.00
11511;DHT22;5812;48.864;9.190;2022-09-13T06:49:01;15.90;1.00
11511;DHT22;5812;48.864;9.190;2022-09-13T06:51:28;16.10;1.00
11511;DHT22;5812;48.864;9.190;2022-09-13T06:53:57;16.40;1.00
11511;DHT22;5812;48.864;9.190;2022-09-13T06:56:34;16.80;1.00
11511;DHT22;5812;48.864;9.190;2022-09-13T06:59:03;17.10;99.90
11511;DHT22;5812;48.864;9.190;2022-09-13T07:01:42;17.30;99.90
11511;DHT22;5812;48.864;9.190;2022-09-13T07:04:13;16.40;99.90
11511;DHT22;5812;48.864;9.190;2022-09-13T07:06:41;17.80;99.90
11511;DHT22;5812;48.864;9.190;2022-09-13T07:09:10;18.10;28.60
11511;DHT22;5812;48.864;9.190;2022-09-13T07:11:38;18.60;99.90
11511;DHT22;5812;48.864;9.190;2022-09-13T07:14:05;18.80;99.90
11511;DHT22;5812;48.864;9.190;2022-09-13T07:16:33;18.80;99.90
11511;DHT22;5812;48.864;9.190;2022-09-13T07:19:02;18.80;99.90
11511;DHT22;5812;48.864;9.190;2022-09-13T07:21:30;19.20;99.90
11511;DHT22;5812;48.864;9.190;2022-09-13T07:23:56;19.60;99.90
11511;DHT22;5812;48.864;9.190;2022-09-13T07:26:23;19.40;99.90
11511;DHT22;5812;48.864;9.190;2022-09-13T07:28:52;19.10;99.90
11511;DHT22;5812;48.864;9.190;2022-09-13T07:31:31;19.10;99.90
11511;DHT22;5812;48.864;9.190;2022-09-13T07:34:03;19.30;99.90
11511;DHT22;5812;48.864;9.190;2022-09-13T07:36:31;19.40;99.90
11511;DHT22;5812;48.864;9.190;2022-09-13T07:38:57;19.40;99.90
11511;DHT22;5812;48.864;9.190;2022-09-13T07:41:24;19.50;99.90
11511;DHT22;5812;48.864;9.190;2022-09-13T07:43:51;20.00;99.90
11511;DHT22;5812;48.864;9.190;2022-09-13T07:46:19;20.30;99.90
11511;DHT22;5812;48.864;9.190;2022-09-13T07:48:46;20.80;99.90
11511;DHT22;5812;48.864;9.190;2022-09-13T07:51:17;21.50;99.90
11511;DHT22;5812;48.864;9.190;2022-09-13T07:53:44;21.60;31.60
11511;DHT22;5812;48.864;9.190;2022-09-13T07:56:15;20.80;49.70
11511;DHT22;5812;48.864;9.190;2022-09-13T07:58:42;21.40;85.70
11511;DHT22;5812;48.864;9.190;2022-09-13T08:01:15;22.30;26.30
11511;DHT22;5812;48.864;9.190;2022-09-13T08:03:41;22.70;9.70
11511;DHT22;5812;48.864;9.190;2022-09-13T08:06:07;22.30;1.00
11511;DHT22;5812;48.864;9.190;2022-09-13T08:08:34;21.80;16.00
11511;DHT22;5812;48.864;9.190;2022-09-13T08:11:02;21.60;46.40
11511;DHT22;5812;48.864;9.190;2022-09-13T08:13:28;22.10;6.70
11511;DHT22;5812;48.864;9.190;2022-09-13T08:15:55;22.00;6.90
11511;DHT22;5812;48.864;9.190;2022-09-13T08:18:20;22.10;5.50
11511;DHT22;5812;48.864;9.190;2022-09-13T08:20:46;21.90;18.70
11511;DHT22;5812;48.864;9.190;2022-09-13T08:23:12;21.90;52.70
11511;DHT22;5812;48.864;9.190;2022-09-13T08:25:39;22.30;9.10
11511;DHT22;5812;48.864;9.190;2022-09-13T08:28:06;22.50;1.80
11511;DHT22;5812;48.864;9.190;2022-09-13T08:30:36;22.70;1.00
11511;DHT22;5812;48.864;9.190;2022-09-13T08:33:05;23.10;10.30
11511;DHT22;5812;48.864;9.190;2022-09-13T08:35:31;23.00;1.00
11511;DHT22;5812;48.864;9.190;2022-09-13T08:37:58;23.10;1.00
11511;DHT22;5812;48.864;9.190;2022-09-13T08:40:42;23.30;1.00
11511;DHT22;5812;48.864;9.190;2022-09-13T08:43:30;23.10;1.00
11511;DHT22;5812;48.864;9.190;2022-09-13T08:48:52;24.00;1.00
11511;DHT22;5812;48.864;9.190;2022-09-13T08:51:36;24.30;1.00
11511;DHT22;5812;48.864;9.190;2022-09-13T08:54:04;24.80;1.00
11511;DHT22;5812;48.864;9.190;2022-09-13T08:57:01;24.90;1.00
11511;DHT22;5812;48.864;9.190;2022-09-13T08:59:47;25.40;1.00
11511;DHT22;5812;48.864;9.190;2022-09-13T09:02:29;25.80;1.00
11511;DHT22;5812;48.864;9.190;2022-09-13T09:07:33;26.00;1.00
11511;DHT22;5812;48.864;9.190;2022-09-13T09:10:10;26.00;1.00
11511;DHT22;5812;48.864;9.190;2022-09-13T09:12:43;26.20;1.00
11511;DHT22;5812;48.864;9.190;2022-09-13T09:15:22;26.50;1.00
11511;DHT22;5812;48.864;9.190;2022-09-13T09:17:56;26.50;1.00
11511;DHT22;5812;48.864;9.190;2022-09-13T09:23:21;26.90;1.00
11511;DHT22;5812;48.864;9.190;2022-09-13T09:25:50;26.70;1.00
11511;DHT22;5812;48.864;9.190;2022-09-13T09:28:18;27.20;1.00
11511;DHT22;5812;48.864;9.190;2022-09-13T09:31:09;27.30;1.00
11511;DHT22;5812;48.864;9.190;2022-09-13T09:37:03;27.80;1.00
11511;DHT22;5812;48.864;9.190;2022-09-13T09:39:30;27.90;1.00
11511;DHT22;5812;48.864;9.190;2022-09-13T09:42:06;27.80;1.00
11511;DHT22;5812;48.864;9.190;2022-09-13T09:44:38;27.80;1.00
11511;DHT22;5812;48.864;9.190;2022-09-13T09:47:24;27.90;1.00
11511;DHT22;5812;48.864;9.190;2022-09-13T09:56:25;27.70;1.00
11511;DHT22;5812;48.864;9.190;2022-09-13T09:58:42;27.80;1.00
11511;DHT22;5812;48.864;9.190;2022-09-13T10:06:28;27.70;1.00
11511;DHT22;5812;48.864;9.190;2022-09-13T10:09:05;27.70;1.00
11511;DHT22;5812;48.864;9.190;2022-09-13T10:11:44;27.90;1.00
11511;DHT22;5812;48.864;9.190;2022-09-13T10:14:33;28.60;1.00
11511;DHT22;5812;48.864;9.190;2022-09-13T10:19:40;28.00;1.00
11511;DHT22;5812;48.864;9.190;2022-09-13T10:22:15;28.60;1.00
11511;DHT22;5812;48.864;9.190;2022-09-13T10:24:41;29.00;1.00
11511;DHT22;5812;48.864;9.190;2022-09-13T10:27:20;29.20;1.00
11511;DHT22;5812;48.864;9.190;2022-09-13T10:29:49;29.80;1.00
11511;DHT22;5812;48.864;9.190;2022-09-13T10:32:16;29.50;1.00
11511;DHT22;5812;48.864;9.190;2022-09-13T10:34:45;29.40;1.00
11511;DHT22;5812;48.864;9.190;2022-09-13T10:37:20;30.10;1.00
11511;DHT22;5812;48.864;9.190;2022-09-13T10:40:32;30.20;1.00
11511;DHT22;5812;48.864;9.190;2022-09-13T10:43:00;30.70;1.00
11511;DHT22;5812;48.864;9.190;2022-09-13T10:45:29;31.30;1.00
11511;DHT22;5812;48.864;9.190;2022-09-13T10:48:04;32.00;1.00
11511;DHT22;5812;48.864;9.190;2022-09-13T10:50:34;31.50;1.00
11511;DHT22;5812;48.864;9.190;2022-09-13T10:53:01;31.10;1.00
11511;DHT22;5812;48.864;9.190;2022-09-13T10:58:11;31.60;1.00
11511;DHT22;5812;48.864;9.190;2022-09-13T11:09:00;34.50;1.00
11511;DHT22;5812;48.864;9.190;2022-09-13T11:11:36;35.60;1.00
11511;DHT22;5812;48.864;9.190;2022-09-13T11:14:07;34.80;1.00
11511;DHT22;5812;48.864;9.190;2022-09-13T11:28:47;37.80;1.00
11511;DHT22;5812;48.864;9.190;2022-09-13T11:31:32;37.00;1.00
11511;DHT22;5812;48.864;9.190;2022-09-13T11:39:22;37.20;1.00
11511;DHT22;5812;48.864;9.190;2022-09-13T11:45:12;37.80;1.00
11511;DHT22;5812;48.864;9.190;2022-09-13T11:47:55;38.70;1.00
11511;DHT22;5812;48.864;9.190;2022-09-13T11:50:28;38.10;1.00
11511;DHT22;5812;48.864;9.190;2022-09-13T11:53:16;39.30;1.00
11511;DHT22;5812;48.864;9.190;2022-09-13T11:55:51;39.90;1.00
11511;DHT22;5812;48.864;9.190;2022-09-13T11:58:34;40.60;1.00
11511;DHT22;5812;48.864;9.190;2022-09-13T12:01:06;40.20;1.00
11511;DHT22;5812;48.864;9.190;2022-09-13T12:03:41;39.20;1.00
11511;DHT22;5812;48.864;9.190;2022-09-13T12:06:17;37.80;1.00
11511;DHT22;5812;48.864;9.190;2022-09-13T12:08:49;36.70;1.00
11511;DHT22;5812;48.864;9.190;2022-09-13T12:11:26;36.90;1.00
11511;DHT22;5812;48.864;9.190;2022-09-13T12:13:58;37.50;1.00
11511;DHT22;5812;48.864;9.190;2022-09-13T12:16:29;37.60;1.00
11511;DHT22;5812;48.864;9.190;2022-09-13T12:18:58;38.00;1.00
11511;DHT22;5812;48.864;9.190;2022-09-13T12:21:29;38.90;1.00
11511;DHT22;5812;48.864;9.190;2022-09-13T12:26:29;38.90;1.00
11511;DHT22;5812;48.864;9.190;2022-09-13T12:28:58;37.50;1.00
11511;DHT22;5812;48.864;9.190;2022-09-13T12:31:28;36.20;1.00
11511;DHT22;5812;48.864;9.190;2022-09-13T12:33:55;35.50;1.00
11511;DHT22;5812;48.864;9.190;2022-09-13T12:42:03;33.20;1.00
11511;DHT22;5812;48.864;9.190;2022-09-13T12:50:45;35.30;1.00
11511;DHT22;5812;48.864;9.190;2022-09-13T13:01:20;38.40;1.00
11511;DHT22;5812;48.864;9.190;2022-09-13T13:03:54;38.20;1.00
11511;DHT22;5812;48.864;9.190;2022-09-13T13:11:47;35.90;1.00
11511;DHT22;5812;48.864;9.190;2022-09-13T13:14:44;35.70;1.00
11511;DHT22;5812;48.864;9.190;2022-09-13T13:17:42;37.00;1.00
11511;DHT22;5812;48.864;9.190;2022-09-13T13:20:38;37.60;1.00
11511;DHT22;5812;48.864;9.190;2022-09-13T13:39:08;34.00;1.00
11511;DHT22;5812;48.864;9.190;2022-09-13T13:41:48;33.60;1.00
11511;DHT22;5812;48.864;9.190;2022-09-13T13:46:49;33.20;1.00
11511;DHT22;5812;48.864;9.190;2022-09-13T13:57:39;32.10;1.00
11511;DHT22;5812;48.864;9.190;2022-09-13T14:05:45;31.00;1.00
11511;DHT22;5812;48.864;9.190;2022-09-13T14:19:33;30.70;1.00
11511;DHT22;5812;48.864;9.190;2022-09-13T14:22:18;30.80;1.00
11511;DHT22;5812;48.864;9.190;2022-09-13T14:24:59;30.90;1.00
11511;DHT22;5812;48.864;9.190;2022-09-13T14:27:35;30.80;1.00
11511;DHT22;5812;48.864;9.190;2022-09-13T14:30:15;31.00;1.00
11511;DHT22;5812;48.864;9.190;2022-09-13T14:32:53;30.90;1.00
11511;DHT22;5812;48.864;9.190;2022-09-13T14:35:31;30.80;1.00
11511;DHT22;5812;48.864;9.190;2022-09-13T14:38:35;30.50;1.00
11511;DHT22;5812;48.864;9.190;2022-09-13T14:41:13;30.30;1.00
11511;DHT22;5812;48.864;9.190;2022-09-13T14:43:40;30.00;1.00
11511;DHT22;5812;48.864;9.190;2022-09-13T14:46:23;29.80;1.00
11511;DHT22;5812;48.864;9.190;2022-09-13T14:49:07;30.00;1.00
11511;DHT22;5812;48.864;9.190;2022-09-13T14:51:58;29.90;1.00
11511;DHT22;5812;48.864;9.190;2022-09-13T14:54:33;29.50;1.00
11511;DHT22;5812;48.864;9.190;2022-09-13T14:57:01;29.80;1.00
11511;DHT22;5812;48.864;9.190;2022-09-13T15:01:53;29.80;1.00
11511;DHT22;5812;48.864;9.190;2022-09-13T15:04:20;29.80;1.00
11511;DHT22;5812;48.864;9.190;2022-09-13T15:07:08;29.50;1.00
11511;DHT22;5812;48.864;9.190;2022-09-13T15:09:42;29.20;1.00
11511;DHT22;5812;48.864;9.190;2022-09-13T15:12:21;28.90;1.00
11511;DHT22;5812;48.864;9.190;2022-09-13T15:14:48;28.80;1.00
11511;DHT22;5812;48.864;9.190;2022-09-13T15:17:14;28.80;1.00
11511;DHT22;5812;48.864;9.190;2022-09-13T15:19:50;28.90;1.00
11511;DHT22;5812;48.864;9.190;2022-09-13T15:22:22;28.70;1.00
11511;DHT22;5812;48.864;9.190;2022-09-13T15:24:54;28.50;1.00
11511;DHT22;5812;48.864;9.190;2022-09-13T15:27:29;28.50;1.00
11511;DHT22;5812;48.864;9.190;2022-09-13T15:30:00;28.40;1.00
11511;DHT22;5812;48.864;9.190;2022-09-13T15:32:40;28.30;1.00
11511;DHT22;5812;48.864;9.190;2022-09-13T15:35:24;28.10;1.00
11511;DHT22;5812;48.864;9.190;2022-09-13T15:40:47;27.80;1.00
11511;DHT22;5812;48.864;9.190;2022-09-13T15:43:22;27.70;1.00
11511;DHT22;5812;48.864;9.190;2022-09-13T15:45:48;27.50;1.00
11511;DHT22;5812;48.864;9.190;2022-09-13T15:48:42;27.40;1.00
11511;DHT22;5812;48.864;9.190;2022-09-13T15:51:12;27.40;1.00
11511;DHT22;5812;48.864;9.190;2022-09-13T15:53:40;27.50;1.00
11511;DHT22;5812;48.864;9.190;2022-09-13T15:56:08;27.50;1.00
11511;DHT22;5812;48.864;9.190;2022-09-13T15:58:34;27.30;1.00
11511;DHT22;5812;48.864;9.190;2022-09-13T16:01:01;27.20;1.00
11511;DHT22;5812;48.864;9.190;2022-09-13T16:03:27;27.10;1.00
11511;DHT22;5812;48.864;9.190;2022-09-13T16:05:53;27.10;1.00
11511;DHT22;5812;48.864;9.190;2022-09-13T16:08:18;27.00;1.00
11511;DHT22;5812;48.864;9.190;2022-09-13T16:10:44;26.90;1.00
11511;DHT22;5812;48.864;9.190;2022-09-13T16:13:10;26.80;1.00
11511;DHT22;5812;48.864;9.190;2022-09-13T16:15:36;26.80;1.00
11511;DHT22;5812;48.864;9.190;2022-09-13T16:18:01;26.70;1.00
11511;DHT22;5812;48.864;9.190;2022-09-13T16:20:27;26.60;1.00
11511;DHT22;5812;48.864;9.190;2022-09-13T16:22:53;26.50;1.00
11511;DHT22;5812;48.864;9.190;2022-09-13T16:25:19;26.40;1.00
11511;DHT22;5812;48.864;9.190;2022-09-13T16:27:44;26.40;1.00
11511;DHT22;5812;48.864;9.190;2022-09-13T16:30:17;26.40;1.00
11511;DHT22;5812;48.864;9.190;2022-09-13T16:32:43;26.20;1.00
11511;DHT22;5812;48.864;9.190;2022-09-13T16:35:10;26.20;1.00
11511;DHT22;5812;48.864;9.190;2022-09-13T16:37:37;26.20;1.00
11511;DHT22;5812;48.864;9.190;2022-09-13T16:40:04;26.10;1.00
11511;DHT22;5812;48.864;9.190;2022-09-13T16:42:31;26.00;1.00
11511;DHT22;5812;48.864;9.190;2022-09-13T16:44:57;25.80;1.00
11511;DHT22;5812;48.864;9.190;2022-09-13T16:47:23;25.70;1.00
11511;DHT22;5812;48.864;9.190;2022-09-13T16:49:49;25.60;1.00
11511;DHT22;5812;48.864;9.190;2022-09-13T16:52:14;25.50;1.00
11511;DHT22;5812;48.864;9.190;2022-09-13T16:54:40;25.40;1.00
11511;DHT22;5812;48.864;9.190;2022-09-13T16:57:06;25.30;1.00
11511;DHT22;5812;48.864;9.190;2022-09-13T16:59:34;25.10;1.00
11511;DHT22;5812;48.864;9.190;2022-09-13T17:02:00;25.00;1.00
11511;DHT22;5812;48.864;9.190;2022-09-13T17:04:26;24.90;1.00
11511;DHT22;5812;48.864;9.190;2022-09-13T17:06:51;24.80;1.00
11511;DHT22;5812;48.864;9.190;2022-09-13T17:09:17;24.70;1.00
11511;DHT22;5812;48.864;9.190;2022-09-13T17:11:45;24.70;1.00
11511;DHT22;5812;48.864;9.190;2022-09-13T17:14:12;24.60;1.00
11511;DHT22;5812;48.864;9.190;2022-09-13T17:16:43;24.40;1.00
11511;DHT22;5812;48.864;9.190;2022-09-13T17:19:17;24.30;1.00
11511;DHT22;5812;48.864;9.190;2022-09-13T17:21:43;24.40;1.00
11511;DHT22;5812;48.864;9.190;2022-09-13T17:24:09;24.30;1.00
11511;DHT22;5812;48.864;9.190;2022-09-13T17:26:35;24.20;1.00
11511;DHT22;5812;48.864;9.190;2022-09-13T17:29:01;24.20;1.00
11511;DHT22;5812;48.864;9.190;2022-09-13T17:31:26;24.00;1.00
11511;DHT22;5812;48.864;9.190;2022-09-13T17:33:52;23.80;1.00
11511;DHT22;5812;48.864;9.190;2022-09-13T17:36:18;23.60;1.00
11511;DHT22;5812;48.864;9.190;2022-09-13T17:38:44;23.60;1.00
11511;DHT22;5812;48.864;9.190;2022-09-13T17:41:15;23.50;1.00
11511;DHT22;5812;48.864;9.190;2022-09-13T17:43:42;23.30;1.00
11511;DHT22;5812;48.864;9.190;2022-09-13T17:46:11;23.20;1.00
11511;DHT22;5812;48.864;9.190;2022-09-13T17:48:37;23.20;1.00
11511;DHT22;5812;48.864;9.190;2022-09-13T17:51:06;23.00;1.00
11511;DHT22;5812;48.864;9.190;2022-09-13T17:53:39;23.00;1.00
11511;DHT22;5812;48.864;9.190;2022-09-13T17:56:05;23.00;1.00
11511;DHT22;5812;48.864;9.190;2022-09-13T17:58:32;23.00;1.00
11511;DHT22;5812;48.864;9.190;2022-09-13T18:01:08;22.90;1.00
11511;DHT22;5812;48.864;9.190;2022-09-13T18:03:34;22.80;1.00
11511;DHT22;5812;48.864;9.190;2022-09-13T18:06:01;22.70;1.00
11511;DHT22;5812;48.864;9.190;2022-09-13T18:08:30;22.60;4.30
11511;DHT22;5812;48.864;9.190;2022-09-13T18:11:11;22.60;4.80
11511;DHT22;5812;48.864;9.190;2022-09-13T18:13:37;22.50;1.00
11511;DHT22;5812;48.864;9.190;2022-09-13T18:16:08;22.50;1.00
11511;DHT22;5812;48.864;9.190;2022-09-13T18:18:35;22.40;1.00
11511;DHT22;5812;48.864;9.190;2022-09-13T18:21:01;22.50;11.70
11511;DHT22;5812;48.864;9.190;2022-09-13T18:23:27;22.40;4.60
11511;DHT22;5812;48.864;9.190;2022-09-13T18:26:02;22.30;3.20
11511;DHT22;5812;48.864;9.190;2022-09-13T18:28:28;22.20;14.70
11511;DHT22;5812;48.864;9.190;2022-09-13T18:30:56;22.10;26.30
11511;DHT22;5812;48.864;9.190;2022-09-13T18:33:22;22.10;36.10
11511;DHT22;5812;48.864;9.190;2022-09-13T18:36:05;22.10;28.60
11511;DHT22;5812;48.864;9.190;2022-09-13T18:38:33;21.80;27.90
11511;DHT22;5812;48.864;9.190;2022-09-13T18:41:09;21.70;33.90
11511;DHT22;5812;48.864;9.190;2022-09-13T18:43:36;21.70;28.40
11511;DHT22;5812;48.864;9.190;2022-09-13T18:46:05;21.60;36.10
11511;DHT22;5812;48.864;9.190;2022-09-13T18:48:33;21.50;25.80
11511;DHT22;5812;48.864;9.190;2022-09-13T18:50:59;21.50;38.40
11511;DHT22;5812;48.864;9.190;2022-09-13T18:53:26;21.50;43.70
11511;DHT22;5812;48.864;9.190;2022-09-13T18:55:52;21.40;67.50
11511;DHT22;5812;48.864;9.190;2022-09-13T18:58:23;21.30;66.30
11511;DHT22;5812;48.864;9.190;2022-09-13T19:00:59;21.30;65.90
11511;DHT22;5812;48.864;9.190;2022-09-13T19:03:25;21.30;46.70
11511;DHT22;5812;48.864;9.190;2022-09-13T19:05:51;21.20;34.20
11511;DHT22;5812;48.864;9.190;2022-09-13T19:08:16;21.20;45.50
11511;DHT22;5812;48.864;9.190;2022-09-13T19:10:42;21.40;52.20
11511;DHT22;5812;48.864;9.190;2022-09-13T19:13:08;21.30;53.10
11511;DHT22;5812;48.864;9.190;2022-09-13T19:15:34;21.20;35.00
11511;DHT22;5812;48.864;9.190;2022-09-13T19:18:00;21.20;28.20
11511;DHT22;5812;48.864;9.190;2022-09-13T19:20:25;21.20;27.20
11511;DHT22;5812;48.864;9.190;2022-09-13T19:22:52;21.20;26.60
11511;DHT22;5812;48.864;9.190;2022-09-13T19:25:18;21.10;34.10
11511;DHT22;5812;48.864;9.190;2022-09-13T19:27:43;21.20;36.80
11511;DHT22;5812;48.864;9.190;2022-09-13T19:30:09;21.30;37.20